Westport, Wisconsin
Current Conditions -  °F | °C
As of 7:50 PM on Monday 22 Dec 2014 (Local Time) from KC29 Reporting Station
Overcast Overcast  
Wind Chill: 30°   Ceiling: 300
Heat Index: 37°   Visibility: 2mi
Dew Point: 37°   Wind: 8mph
Humidity: 100%   Direction: 100°E
Pressure: 29.63"   Gusts: NA
Location:  43.1852°N, 89.4585°W
Report Text: KC29 230150Z AUTO 10007KT 2SM OVC003 03/03 A2963 RMK AO1 T00250025
Loading
Personal Weather Stations






























Interactive Weather Map New forecast layout! Learn more

10-Day Weather Forecast

Advertisements
Track Severe Weather on mobile